createdAt,value
2019-01-16T00:00:03.533Z,78.33
2019-01-16T00:02:33.813Z,83.47
2019-01-16T00:05:04.011Z,62.93
2019-01-16T00:07:34.331Z,40.13
2019-01-16T00:10:13.864Z,49.20
2019-01-16T00:13:01.988Z,68.73
2019-01-16T00:15:38.455Z,66.80
2019-01-16T00:18:08.693Z,60.80
2019-01-16T00:20:48.100Z,63.10
2019-01-16T00:23:21.215Z,46.13
2019-01-16T00:25:51.928Z,70.60
2019-01-16T00:28:30.817Z,82.80
2019-01-16T00:31:15.792Z,82.10
2019-01-16T00:34:02.503Z,84.07
2019-01-16T00:36:44.822Z,82.23
2019-01-16T00:39:20.881Z,80.60
2019-01-16T00:41:54.323Z,84.30
2019-01-16T00:44:24.634Z,82.67
2019-01-16T00:46:54.901Z,83.20
2019-01-16T00:49:28.844Z,80.53
2019-01-16T00:52:05.073Z,81.27
2019-01-16T00:54:35.377Z,82.03
2019-01-16T00:57:05.655Z,75.53
2019-01-16T00:59:38.881Z,63.47
2019-01-16T01:02:27.481Z,83.00
2019-01-16T01:05:13.923Z,72.93
2019-01-16T01:08:00.332Z,73.07
2019-01-16T01:10:33.357Z,81.07
2019-01-16T01:13:06.500Z,81.10
2019-01-16T01:15:43.196Z,81.97
2019-01-16T01:18:16.142Z,78.23
2019-01-16T01:20:46.955Z,82.90
2019-01-16T01:23:23.272Z,67.97
2019-01-16T01:26:05.413Z,80.07
2019-01-16T01:28:41.716Z,82.97
2019-01-16T01:31:14.875Z,82.13
2019-01-16T01:34:02.963Z,83.07
2019-01-16T01:36:45.365Z,83.10
2019-01-16T01:39:30.612Z,80.77
2019-01-16T01:42:03.699Z,80.20
2019-01-16T01:44:50.346Z,82.23
2019-01-16T01:47:26.658Z,81.77
2019-01-16T01:50:03.870Z,80.87
2019-01-16T01:52:40.210Z,82.63
2019-01-16T01:55:25.817Z,80.67
2019-01-16T01:57:56.069Z,81.77
2019-01-16T02:00:32.554Z,82.40
2019-01-16T02:03:09.162Z,80.17
2019-01-16T02:05:39.467Z,56.80
2019-01-16T02:08:26.237Z,8.37
2019-01-16T02:11:12.801Z,65.20
2019-01-16T02:13:59.572Z,82.53
2019-01-16T02:16:46.354Z,81.97
2019-01-16T02:19:16.600Z,80.73
2019-01-16T02:22:03.335Z,79.83
2019-01-16T02:24:33.650Z,79.43
2019-01-16T02:27:06.689Z,80.33
2019-01-16T02:29:55.527Z,78.57
2019-01-16T02:32:28.818Z,81.20
2019-01-16T02:34:59.134Z,78.77
2019-01-16T02:37:29.335Z,81.13
2019-01-16T02:40:11.378Z,81.00
2019-01-16T02:42:47.623Z,80.90
2019-01-16T02:45:33.242Z,80.70
2019-01-16T02:48:09.294Z,81.23
2019-01-16T02:50:40.468Z,76.90
2019-01-16T02:53:13.490Z,65.47
2019-01-16T02:55:59.782Z,79.43
2019-01-16T02:58:30.058Z,69.10
2019-01-16T03:01:16.554Z,61.97
2019-01-16T03:03:49.592Z,79.87
2019-01-16T03:06:36.410Z,44.00
2019-01-16T03:09:12.185Z,61.20
2019-01-16T03:11:58.536Z,80.50
2019-01-16T03:14:28.803Z,81.40
2019-01-16T03:17:05.274Z,74.17
2019-01-16T03:19:35.512Z,67.73
2019-01-16T03:22:21.084Z,80.47
2019-01-16T03:24:54.481Z,67.97
2019-01-16T03:27:28.337Z,80.93
2019-01-16T03:30:01.439Z,80.10
2019-01-16T03:32:32.217Z,80.73
2019-01-16T03:35:11.468Z,82.13
2019-01-16T03:37:41.777Z,81.23
2019-01-16T03:40:18.858Z,76.17
2019-01-16T03:43:05.762Z,81.37
2019-01-16T03:45:38.729Z,81.40
2019-01-16T03:48:12.274Z,81.10
2019-01-16T03:50:42.904Z,80.97
2019-01-16T03:53:13.172Z,81.20
2019-01-16T03:56:01.765Z,81.80
2019-01-16T03:58:38.020Z,69.40
2019-01-16T04:01:14.324Z,77.33
2019-01-16T04:03:44.529Z,81.93
2019-01-16T04:06:20.920Z,80.97
2019-01-16T04:09:07.626Z,81.03
2019-01-16T04:11:40.652Z,79.33
2019-01-16T04:14:16.928Z,76.10
2019-01-16T04:16:49.969Z,80.47
2019-01-16T04:19:25.939Z,81.37
2019-01-16T04:21:56.280Z,81.63
2019-01-16T04:24:29.233Z,81.10
2019-01-16T04:26:59.420Z,80.97
2019-01-16T04:29:35.638Z,71.17
2019-01-16T04:32:17.827Z,69.00
2019-01-16T04:34:48.145Z,46.17
2019-01-16T04:37:34.391Z,69.27
2019-01-16T04:40:13.731Z,35.53
2019-01-16T04:43:02.568Z,17.70
2019-01-16T04:45:32.870Z,17.77
2019-01-16T04:48:03.053Z,2.30
2019-01-16T04:50:36.361Z,5.20
2019-01-16T04:53:10.511Z,62.13
2019-01-16T04:55:56.356Z,70.73
2019-01-16T04:58:38.413Z,67.60
2019-01-16T05:01:11.451Z,61.40
2019-01-16T05:03:53.495Z,9.30
2019-01-16T05:06:29.970Z,85.83
2019-01-16T05:09:15.310Z,89.00
2019-01-16T05:12:00.646Z,84.40
2019-01-16T05:14:36.533Z,81.00
2019-01-16T05:17:21.526Z,78.63
2019-01-16T05:19:57.851Z,78.60
2019-01-16T05:22:30.875Z,80.10
2019-01-16T05:25:13.071Z,80.03
2019-01-16T05:27:49.387Z,79.87
2019-01-16T05:30:19.630Z,79.93
2019-01-16T05:32:52.624Z,79.87
2019-01-16T05:35:25.811Z,80.67
2019-01-16T05:38:04.984Z,80.13
2019-01-16T05:40:40.993Z,80.27
2019-01-16T05:43:29.614Z,82.30
2019-01-16T05:46:02.756Z,81.50
2019-01-16T05:48:42.207Z,81.43
2019-01-16T05:51:18.560Z,78.97
2019-01-16T05:53:54.382Z,79.97
2019-01-16T05:56:30.811Z,79.37
2019-01-16T05:59:03.937Z,80.03
2019-01-16T06:01:36.938Z,78.80
2019-01-16T06:04:09.667Z,78.60
2019-01-16T06:06:39.836Z,80.03
2019-01-16T06:09:18.527Z,81.17
2019-01-16T06:11:49.066Z,80.97
2019-01-16T06:14:25.543Z,86.00
2019-01-16T06:16:55.759Z,87.57
2019-01-16T06:19:28.717Z,87.97
2019-01-16T06:21:58.945Z,83.33
2019-01-16T06:24:44.476Z,82.90
2019-01-16T06:27:17.889Z,85.43
2019-01-16T06:29:48.146Z,83.97
2019-01-16T06:32:27.555Z,83.17
2019-01-16T06:34:57.815Z,81.73
2019-01-16T06:37:28.055Z,82.43
2019-01-16T06:40:00.986Z,83.53
2019-01-16T06:42:34.097Z,85.33
2019-01-16T06:45:16.095Z,85.40
2019-01-16T06:48:04.581Z,83.47
2019-01-16T06:50:50.808Z,84.60
2019-01-16T06:53:30.073Z,76.87
2019-01-16T06:56:05.978Z,74.33
2019-01-16T06:58:39.012Z,80.13
2019-01-16T07:01:21.181Z,84.97
2019-01-16T07:04:08.041Z,86.67
2019-01-16T07:06:44.177Z,84.00
2019-01-16T07:09:30.635Z,83.00
2019-01-16T07:12:00.852Z,83.97
2019-01-16T07:14:46.618Z,82.80
2019-01-16T07:17:22.834Z,83.43
2019-01-16T07:20:09.807Z,84.07
2019-01-16T07:22:40.005Z,86.97
2019-01-16T07:25:12.934Z,85.50
2019-01-16T07:28:01.519Z,87.33
2019-01-16T07:30:34.275Z,107.63
2019-01-16T07:33:06.968Z,92.73
2019-01-16T07:35:43.179Z,85.60
2019-01-16T07:38:13.410Z,88.93
2019-01-16T07:40:44.028Z,88.50
2019-01-16T07:43:14.243Z,91.30
2019-01-16T07:45:44.414Z,88.87
2019-01-16T07:48:17.585Z,84.67
2019-01-16T07:51:03.812Z,84.03
2019-01-16T07:53:50.462Z,99.90
2019-01-16T07:56:24.070Z,86.57
2019-01-16T07:59:00.291Z,92.00
2019-01-16T08:01:33.196Z,84.50
2019-01-16T08:04:18.078Z,118.70
2019-01-16T08:07:03.401Z,136.17
2019-01-16T08:09:42.456Z,95.23
2019-01-16T08:12:12.669Z,94.67
2019-01-16T08:15:01.199Z,90.23
2019-01-16T08:17:31.456Z,92.03
2019-01-16T08:20:16.530Z,82.63
2019-01-16T08:22:52.560Z,78.37
